createdAt,value
2022-10-14T00:01:17.973Z,20.67
2022-10-14T00:03:45.816Z,21.33
2022-10-14T00:06:16.160Z,21.02
2022-10-14T00:08:44.798Z,20.30
2022-10-14T00:11:18.120Z,21.13
2022-10-14T00:13:46.090Z,19.60
2022-10-14T00:16:22.690Z,19.77
2022-10-14T00:18:50.875Z,20.27
2022-10-14T00:21:19.509Z,21.98
2022-10-14T00:23:47.608Z,20.63
2022-10-14T00:26:21.004Z,19.48
2022-10-14T00:28:50.326Z,21.20
2022-10-14T00:31:18.590Z,21.15
2022-10-14T00:33:48.638Z,20.73
2022-10-14T00:36:18.648Z,21.23
2022-10-14T00:38:47.433Z,22.05
2022-10-14T00:41:21.030Z,21.58
2022-10-14T00:44:02.547Z,20.67
2022-10-14T00:46:36.354Z,19.80
2022-10-14T00:49:24.632Z,19.38
2022-10-14T00:52:00.599Z,18.88
2022-10-14T00:54:33.504Z,20.35
2022-10-14T00:57:02.635Z,19.80
2022-10-14T00:59:32.551Z,19.08
2022-10-14T01:02:00.112Z,19.17
2022-10-14T01:04:27.985Z,18.50
2022-10-14T01:07:22.503Z,17.90
2022-10-14T01:10:25.343Z,17.55
2022-10-14T01:13:02.779Z,16.58
2022-10-14T01:15:56.634Z,17.80
2022-10-14T01:18:38.978Z,17.48
2022-10-14T01:21:08.421Z,17.17
2022-10-14T01:24:11.494Z,15.90
2022-10-14T01:26:59.677Z,16.67
2022-10-14T01:30:01.039Z,16.77
2022-10-14T01:32:48.842Z,16.27
2022-10-14T01:35:31.258Z,16.15
2022-10-14T01:38:11.316Z,17.20
2022-10-14T01:41:04.531Z,18.27
2022-10-14T01:43:33.213Z,16.75
2022-10-14T01:46:04.135Z,18.23
2022-10-14T01:48:36.809Z,17.42
2022-10-14T01:51:11.867Z,18.20
2022-10-14T01:54:03.435Z,17.10
2022-10-14T01:56:38.134Z,17.23
2022-10-14T01:59:10.724Z,16.90
2022-10-14T02:01:38.552Z,17.25
2022-10-14T02:06:52.804Z,16.95
2022-10-14T02:09:46.515Z,17.15
2022-10-14T02:12:40.529Z,17.60
2022-10-14T02:15:21.151Z,19.77
2022-10-14T02:17:54.130Z,19.33
2022-10-14T02:20:37.392Z,18.48
2022-10-14T02:23:32.795Z,18.77
2022-10-14T02:26:01.727Z,18.60
2022-10-14T02:28:31.366Z,19.20
2022-10-14T02:31:04.670Z,18.83
2022-10-14T02:33:36.655Z,20.40
2022-10-14T02:36:11.679Z,19.27
2022-10-14T02:38:40.952Z,20.75
2022-10-14T02:41:15.387Z,21.73
2022-10-14T02:43:44.608Z,22.65
2022-10-14T02:46:12.150Z,20.95
2022-10-14T02:51:07.856Z,20.13
2022-10-14T02:53:38.651Z,20.90
2022-10-14T02:56:07.035Z,22.33
2022-10-14T02:58:35.092Z,22.73
2022-10-14T03:01:02.703Z,23.40
2022-10-14T03:03:30.676Z,22.77
2022-10-14T03:05:59.027Z,25.08
2022-10-14T03:08:29.002Z,25.85
2022-10-14T03:10:58.395Z,23.85
2022-10-14T03:13:27.793Z,23.50
2022-10-14T03:15:55.977Z,22.98
2022-10-14T03:18:24.607Z,25.08
2022-10-14T03:20:57.395Z,25.38
2022-10-14T03:23:32.292Z,24.75
2022-10-14T03:25:59.808Z,26.08
2022-10-14T03:28:33.735Z,24.77
2022-10-14T03:31:17.291Z,24.77
2022-10-14T03:34:11.484Z,27.30
2022-10-14T03:36:41.095Z,28.83
2022-10-14T03:39:10.979Z,29.88
2022-10-14T03:41:47.093Z,29.05
2022-10-14T03:44:18.522Z,25.80
2022-10-14T03:47:06.001Z,24.70
2022-10-14T03:49:34.627Z,29.15
2022-10-14T03:52:10.402Z,28.67
2022-10-14T03:54:39.134Z,28.60
2022-10-14T03:57:06.812Z,30.08
2022-10-14T03:59:42.283Z,26.13
2022-10-14T04:02:10.143Z,28.15
2022-10-14T04:04:40.764Z,28.13
2022-10-14T04:07:09.324Z,26.20
2022-10-14T04:09:38.024Z,27.60
2022-10-14T04:12:08.606Z,28.35
2022-10-14T04:14:51.049Z,30.65
2022-10-14T04:17:18.715Z,29.98
2022-10-14T04:19:46.610Z,30.33
2022-10-14T04:22:17.309Z,32.00
2022-10-14T04:24:48.558Z,31.00
2022-10-14T04:27:16.375Z,31.98
2022-10-14T04:29:59.107Z,32.95
2022-10-14T04:32:33.029Z,33.42
2022-10-14T04:35:00.966Z,33.88
2022-10-14T04:37:31.403Z,35.00
2022-10-14T04:40:03.915Z,34.63
2022-10-14T04:42:33.164Z,35.13
2022-10-14T04:45:05.270Z,35.92
2022-10-14T04:47:48.483Z,36.20
2022-10-14T04:50:20.444Z,36.38
2022-10-14T04:53:22.366Z,36.30
2022-10-14T04:56:03.038Z,32.35
2022-10-14T04:58:30.734Z,33.78
2022-10-14T05:00:58.455Z,32.58
2022-10-14T05:03:30.599Z,32.58
2022-10-14T05:06:00.016Z,32.03
2022-10-14T05:08:27.628Z,31.42
2022-10-14T05:10:57.458Z,29.05
2022-10-14T05:13:41.105Z,26.58
2022-10-14T05:16:09.531Z,26.45
2022-10-14T05:18:39.440Z,27.67
2022-10-14T05:21:10.423Z,27.67
2022-10-14T05:23:49.460Z,27.55
2022-10-14T05:26:17.273Z,26.52
2022-10-14T05:28:45.532Z,26.50
2022-10-14T05:31:13.331Z,26.02
2022-10-14T05:33:49.813Z,24.88
2022-10-14T05:36:17.429Z,24.45
2022-10-14T05:38:44.986Z,26.15
2022-10-14T05:41:12.669Z,25.10
2022-10-14T05:43:40.740Z,23.50
2022-10-14T05:46:08.204Z,24.77
2022-10-14T05:48:39.687Z,20.80
2022-10-14T05:51:07.252Z,22.95
2022-10-14T05:53:39.269Z,23.63
2022-10-14T05:56:12.352Z,22.35
2022-10-14T05:58:41.229Z,22.13
2022-10-14T06:01:10.554Z,21.15
2022-10-14T06:03:41.585Z,21.83
2022-10-14T06:06:15.192Z,20.98
2022-10-14T06:08:43.518Z,20.23
2022-10-14T06:11:11.750Z,19.75
2022-10-14T06:13:39.750Z,20.85
2022-10-14T06:16:10.035Z,20.00
2022-10-14T06:18:38.446Z,20.45
2022-10-14T06:21:06.582Z,21.75
2022-10-14T06:23:34.849Z,19.88
2022-10-14T06:26:06.486Z,20.35
2022-10-14T06:28:34.058Z,20.42
2022-10-14T06:31:01.593Z,20.60
2022-10-14T06:33:30.090Z,20.50
2022-10-14T06:35:57.669Z,20.52
2022-10-14T06:38:25.492Z,19.40
2022-10-14T06:40:54.644Z,19.85
2022-10-14T06:43:22.834Z,18.02
2022-10-14T06:45:50.573Z,19.30
2022-10-14T06:48:18.020Z,19.73
2022-10-14T06:50:45.525Z,18.75
2022-10-14T06:53:13.282Z,18.60
2022-10-14T06:55:40.713Z,19.10
2022-10-14T06:58:08.319Z,17.80
2022-10-14T07:00:37.254Z,18.13
2022-10-14T07:03:04.983Z,17.90
2022-10-14T07:05:32.558Z,17.08
2022-10-14T07:10:28.611Z,21.67
2022-10-14T07:12:56.374Z,18.25
2022-10-14T07:15:23.965Z,18.15
2022-10-14T07:17:51.493Z,18.05
2022-10-14T07:20:18.999Z,18.08
2022-10-14T07:22:46.919Z,16.42
2022-10-14T07:25:14.480Z,16.88
2022-10-14T07:27:41.954Z,16.65
2022-10-14T07:30:12.598Z,17.17
2022-10-14T07:32:42.808Z,16.17
2022-10-14T07:35:10.308Z,15.70
2022-10-14T07:37:38.136Z,16.80
2022-10-14T07:40:06.294Z,16.13
2022-10-14T07:45:01.761Z,14.93
2022-10-14T07:47:29.295Z,15.35
2022-10-14T07:49:56.759Z,15.13
2022-10-14T07:52:24.319Z,14.23
2022-10-14T07:54:51.936Z,14.45
2022-10-14T07:57:19.911Z,13.80
2022-10-14T07:59:48.084Z,13.55
2022-10-14T08:02:15.688Z,13.65
2022-10-14T08:04:43.150Z,12.32
2022-10-14T08:07:10.689Z,12.65
2022-10-14T08:09:38.110Z,11.73
2022-10-14T08:12:05.865Z,11.60
2022-10-14T08:14:33.367Z,11.30
2022-10-14T08:17:00.904Z,10.73
2022-10-14T08:19:28.493Z,10.75
2022-10-14T08:21:56.325Z,10.45
2022-10-14T08:24:23.885Z,10.15
2022-10-14T08:26:54.480Z,9.57
2022-10-14T08:29:24.789Z,8.68
2022-10-14T08:31:55.149Z,7.65
2022-10-14T08:34:24.409Z,7.65
2022-10-14T08:36:54.595Z,6.82
2022-10-14T08:39:22.231Z,5.93
2022-10-14T08:42:01.732Z,5.75
2022-10-14T08:44:43.997Z,5.55
2022-10-14T08:47:16.486Z,5.40
2022-10-14T08:49:50.060Z,5.22
2022-10-14T08:52:33.603Z,5.35
2022-10-14T08:55:16.120Z,6.13
2022-10-14T08:57:52.743Z,5.40
2022-10-14T09:00:21.932Z,5.32
2022-10-14T09:02:53.187Z,5.43
2022-10-14T09:05:26.565Z,5.57
2022-10-14T09:07:56.713Z,4.60
2022-10-14T09:10:33.210Z,4.60
2022-10-14T09:13:14.088Z,4.32
2022-10-14T09:15:48.227Z,4.20
2022-10-14T09:18:43.478Z,3.95
2022-10-14T09:21:47.934Z,3.60
2022-10-14T09:24:37.433Z,4.03
2022-10-14T09:27:12.985Z,3.50
2022-10-14T09:29:51.800Z,3.15
2022-10-14T09:32:37.688Z,3.53
2022-10-14T09:35:19.939Z,3.50
2022-10-14T09:37:47.470Z,3.17
2022-10-14T09:40:30.856Z,2.85
2022-10-14T09:43:03.192Z,3.10
2022-10-14T09:45:51.239Z,2.60
2022-10-14T09:48:24.071Z,3.15
2022-10-14T09:50:56.825Z,2.38
2022-10-14T09:53:38.099Z,2.35
2022-10-14T09:56:08.171Z,2.72
2022-10-14T09:58:42.588Z,2.42
2022-10-14T10:01:42.756Z,2.47
2022-10-14T10:04:32.134Z,2.50
2022-10-14T10:07:03.105Z,2.47
2022-10-14T10:09:30.629Z,2.50
2022-10-14T10:12:01.007Z,2.58
2022-10-14T10:14:33.702Z,2.90
2022-10-14T10:17:12.637Z,2.38
2022-10-14T10:19:43.268Z,2.70
2022-10-14T10:25:12.505Z,2.50
2022-10-14T10:27:45.854Z,2.22
2022-10-14T10:30:29.691Z,2.65
2022-10-14T10:33:21.624Z,2.50
2022-10-14T10:36:07.924Z,2.00
2022-10-14T10:38:49.646Z,2.25
2022-10-14T10:41:26.045Z,2.67
2022-10-14T10:44:06.308Z,2.97
2022-10-14T10:46:45.185Z,2.80
2022-10-14T10:49:20.206Z,2.55
2022-10-14T10:51:57.159Z,2.88
2022-10-14T10:54:47.623Z,2.63
2022-10-14T10:57:52.836Z,2.70
2022-10-14T11:03:02.703Z,3.05
2022-10-14T11:05:40.826Z,2.67
2022-10-14T11:08:51.531Z,2.92
2022-10-14T11:11:51.193Z,3.22
2022-10-14T11:14:27.172Z,2.83
2022-10-14T11:17:06.764Z,3.47
2022-10-14T11:19:49.745Z,3.65
2022-10-14T11:22:19.648Z,3.90
2022-10-14T11:25:06.385Z,3.88
2022-10-14T11:27:44.478Z,4.35
2022-10-14T11:30:28.586Z,4.03
2022-10-14T11:33:33.798Z,3.67
2022-10-14T11:36:31.527Z,3.60
2022-10-14T11:39:29.640Z,3.67
2022-10-14T11:42:14.351Z,3.40
2022-10-14T11:44:43.594Z,3.92
2022-10-14T11:47:19.217Z,4.00
2022-10-14T11:50:20.780Z,4.78
2022-10-14T11:53:03.050Z,5.32
2022-10-14T11:55:36.014Z,5.57
2022-10-14T11:58:12.408Z,5.20
2022-10-14T12:01:00.073Z,5.00
2022-10-14T12:03:38.675Z,4.65
2022-10-14T12:06:07.397Z,4.70
2022-10-14T12:08:53.314Z,4.90
2022-10-14T12:11:29.377Z,4.60
2022-10-14T12:14:21.776Z,5.03
2022-10-14T12:16:50.944Z,5.20
2022-10-14T12:19:27.331Z,5.22
2022-10-14T12:22:16.760Z,4.70
2022-10-14T12:24:52.198Z,3.50
2022-10-14T12:27:21.956Z,2.97
2022-10-14T12:29:51.535Z,2.83
2022-10-14T12:32:30.657Z,2.90
2022-10-14T12:35:01.320Z,2.67
2022-10-14T12:37:35.184Z,2.50
2022-10-14T12:40:06.811Z,3.08
2022-10-14T12:42:57.686Z,2.67
2022-10-14T12:45:31.061Z,2.40
2022-10-14T12:48:15.887Z,2.58
2022-10-14T12:50:46.675Z,2.47
2022-10-14T12:53:21.321Z,2.63
2022-10-14T12:55:57.591Z,3.17
2022-10-14T12:58:27.643Z,2.67
2022-10-14T13:00:59.133Z,2.40
2022-10-14T13:03:34.789Z,1.98
2022-10-14T13:06:53.907Z,1.90
2022-10-14T13:09:32.946Z,1.90
2022-10-14T13:12:00.369Z,2.05
2022-10-14T13:14:32.533Z,1.50
2022-10-14T13:17:24.468Z,1.45
2022-10-14T13:19:52.129Z,1.70
2022-10-14T13:22:31.596Z,2.00
2022-10-14T13:25:12.006Z,1.88
2022-10-14T13:28:00.776Z,2.35
2022-10-14T13:31:01.928Z,1.80
2022-10-14T13:33:40.735Z,1.95
2022-10-14T13:36:12.372Z,1.92
2022-10-14T13:38:45.419Z,1.83
2022-10-14T13:41:18.705Z,1.73
2022-10-14T13:43:46.430Z,1.90
2022-10-14T13:46:22.666Z,2.13
2022-10-14T13:48:58.164Z,2.17
2022-10-14T13:51:42.505Z,2.33
2022-10-14T13:54:10.056Z,2.08
2022-10-14T13:56:37.510Z,2.20
2022-10-14T13:59:43.229Z,1.90
2022-10-14T14:02:15.807Z,1.90
2022-10-14T14:04:49.953Z,1.80
2022-10-14T14:11:14.500Z,2.20
2022-10-14T14:14:00.781Z,1.63
2022-10-14T14:16:48.687Z,1.65
2022-10-14T14:19:25.659Z,1.67
2022-10-14T14:22:28.881Z,1.85
2022-10-14T14:25:33.578Z,1.88
2022-10-14T14:28:02.828Z,2.22
2022-10-14T14:30:32.784Z,1.88
2022-10-14T14:33:04.139Z,1.83
2022-10-14T14:35:31.689Z,1.90
2022-10-14T14:38:03.649Z,1.60
2022-10-14T14:40:31.709Z,1.65
2022-10-14T14:43:01.942Z,1.48
2022-10-14T14:45:34.938Z,1.70
2022-10-14T14:48:07.008Z,1.70
2022-10-14T14:50:38.435Z,1.80
2022-10-14T14:53:20.541Z,1.38
2022-10-14T14:56:06.858Z,1.40
2022-10-14T14:58:57.641Z,1.30
2022-10-14T15:01:54.621Z,1.30
2022-10-14T15:04:27.333Z,1.33
2022-10-14T15:07:01.011Z,1.20
2022-10-14T15:09:58.912Z,1.42
2022-10-14T15:12:34.451Z,1.58
2022-10-14T15:15:33.910Z,1.70
2022-10-14T15:18:27.562Z,1.63
2022-10-14T15:21:24.887Z,1.80
2022-10-14T15:24:15.376Z,2.17
2022-10-14T15:26:52.188Z,2.15
2022-10-14T15:29:24.821Z,2.28
2022-10-14T15:32:34.335Z,1.90
2022-10-14T15:35:12.505Z,2.40
2022-10-14T15:37:40.099Z,1.88
2022-10-14T15:40:22.048Z,1.80
2022-10-14T15:42:53.258Z,2.28
2022-10-14T15:45:21.604Z,2.42
2022-10-14T15:48:05.488Z,2.28
2022-10-14T15:50:37.504Z,2.58
2022-10-14T15:53:05.060Z,2.50
2022-10-14T15:55:35.913Z,2.50
2022-10-14T15:58:14.980Z,2.40
2022-10-14T16:00:53.753Z,2.42
2022-10-14T16:03:22.060Z,2.40
2022-10-14T16:05:49.645Z,2.30
2022-10-14T16:08:17.307Z,2.50
2022-10-14T16:10:47.275Z,2.60
2022-10-14T16:13:25.671Z,2.65
2022-10-14T16:16:15.620Z,2.72
2022-10-14T16:18:46.372Z,2.78
2022-10-14T16:24:09.173Z,3.53
2022-10-14T16:26:40.819Z,3.70
2022-10-14T16:29:10.410Z,3.55
2022-10-14T16:31:38.085Z,4.60
2022-10-14T16:34:19.152Z,4.30
2022-10-14T16:36:48.833Z,4.05
2022-10-14T16:39:17.741Z,3.80
2022-10-14T16:41:45.580Z,3.55
2022-10-14T16:44:24.565Z,3.75
2022-10-14T16:47:16.236Z,3.50
2022-10-14T16:49:45.746Z,3.97
2022-10-14T16:52:13.879Z,3.70
2022-10-14T16:54:41.398Z,3.47
2022-10-14T16:57:09.079Z,3.80
2022-10-14T16:59:37.076Z,3.90
2022-10-14T17:02:05.356Z,3.60
2022-10-14T17:07:06.999Z,3.35
2022-10-14T17:09:39.333Z,3.45
2022-10-14T17:12:11.183Z,3.53
2022-10-14T17:14:41.651Z,4.00
2022-10-14T17:17:16.653Z,4.03
2022-10-14T17:19:44.665Z,4.50
2022-10-14T17:22:12.197Z,4.07
2022-10-14T17:24:39.683Z,4.68
2022-10-14T17:27:13.165Z,4.03
2022-10-14T17:29:42.756Z,4.53
2022-10-14T17:32:12.875Z,4.80
2022-10-14T17:34:40.433Z,4.95
2022-10-14T17:37:10.239Z,4.60
2022-10-14T17:39:40.976Z,4.45
2022-10-14T17:44:37.962Z,4.60
2022-10-14T17:47:08.917Z,4.82
2022-10-14T17:49:40.896Z,5.43
2022-10-14T17:52:14.141Z,5.28
2022-10-14T17:54:41.700Z,5.63
2022-10-14T17:57:09.185Z,5.82
2022-10-14T17:59:36.619Z,6.88
2022-10-14T18:02:04.738Z,7.03
2022-10-14T18:04:33.018Z,7.10
2022-10-14T18:09:30.572Z,5.10
2022-10-14T18:12:13.437Z,6.28
2022-10-14T18:14:46.356Z,5.68
2022-10-14T18:17:13.837Z,7.38
2022-10-14T18:19:42.114Z,7.82
2022-10-14T18:22:11.202Z,9.50
2022-10-14T18:24:39.308Z,6.05
2022-10-14T18:27:07.241Z,5.97
2022-10-14T18:29:34.925Z,5.18
2022-10-14T18:32:02.914Z,6.10
2022-10-14T18:34:33.189Z,6.93
2022-10-14T18:37:00.795Z,6.32
2022-10-14T18:39:28.363Z,6.13
2022-10-14T18:41:55.920Z,6.80
2022-10-14T18:44:23.448Z,7.82
2022-10-14T18:46:50.972Z,9.38
2022-10-14T18:49:18.537Z,7.20
2022-10-14T18:51:46.422Z,8.65
2022-10-14T18:54:27.191Z,8.35
2022-10-14T18:56:59.728Z,5.40
2022-10-14T18:59:31.130Z,7.50
2022-10-14T19:02:24.165Z,6.70
2022-10-14T19:04:52.712Z,5.88
2022-10-14T19:07:29.438Z,6.57
2022-10-14T19:10:13.300Z,5.35
2022-10-14T19:12:56.594Z,7.80
2022-10-14T19:16:20.719Z,7.07
2022-10-14T19:19:04.239Z,5.82
2022-10-14T19:21:35.086Z,6.32
2022-10-14T19:24:08.094Z,6.78
2022-10-14T19:27:07.308Z,8.10
2022-10-14T19:29:37.056Z,6.47
2022-10-14T19:32:09.024Z,7.50
2022-10-14T19:34:38.046Z,8.35
2022-10-14T19:37:05.729Z,8.57
2022-10-14T19:39:35.654Z,8.98
2022-10-14T19:42:03.183Z,9.52
2022-10-14T19:47:03.244Z,7.88
2022-10-14T19:49:30.888Z,8.18
2022-10-14T19:52:01.259Z,8.95
2022-10-14T19:54:31.828Z,9.48
2022-10-14T19:56:59.367Z,9.73
2022-10-14T19:59:27.104Z,8.50
2022-10-14T20:01:56.976Z,8.82
2022-10-14T20:04:26.674Z,8.18
2022-10-14T20:06:55.289Z,8.40
2022-10-14T20:09:26.801Z,7.85
2022-10-14T20:11:54.622Z,7.32
2022-10-14T20:14:22.441Z,7.07
2022-10-14T20:16:53.565Z,6.57
2022-10-14T20:19:23.565Z,5.78
2022-10-14T20:21:51.078Z,5.25
2022-10-14T20:24:18.693Z,5.78
2022-10-14T20:26:46.592Z,5.18
2022-10-14T20:29:16.692Z,4.95
2022-10-14T20:31:44.320Z,5.30
2022-10-14T20:34:11.759Z,5.68
2022-10-14T20:36:39.372Z,5.50
2022-10-14T20:39:09.745Z,5.03
2022-10-14T20:41:37.254Z,5.57
2022-10-14T20:44:05.076Z,5.28
2022-10-14T20:46:38.605Z,5.20
2022-10-14T20:49:19.257Z,5.88
2022-10-14T20:51:54.070Z,5.55
2022-10-14T20:54:24.109Z,5.47
2022-10-14T20:56:51.808Z,6.25
2022-10-14T20:59:32.808Z,5.63
2022-10-14T21:04:42.836Z,5.38
2022-10-14T21:07:10.630Z,5.45
2022-10-14T21:09:40.584Z,6.25
2022-10-14T21:12:11.181Z,6.47
2022-10-14T21:14:41.937Z,7.60
2022-10-14T21:17:29.570Z,7.32
2022-10-14T21:19:57.214Z,7.80
2022-10-14T21:22:26.060Z,7.57
2022-10-14T21:24:54.163Z,8.20
2022-10-14T21:27:27.637Z,8.15
2022-10-14T21:32:23.376Z,8.43
2022-10-14T21:34:54.060Z,7.82
2022-10-14T21:37:26.464Z,7.78
2022-10-14T21:39:56.824Z,7.47
2022-10-14T21:42:24.736Z,7.20
2022-10-14T21:44:55.439Z,7.03
2022-10-14T21:47:33.404Z,6.57
2022-10-14T21:50:00.924Z,5.85
2022-10-14T21:52:28.451Z,6.07
2022-10-14T21:54:55.964Z,6.33
2022-10-14T21:57:23.756Z,6.43
2022-10-14T21:59:51.574Z,6.80
2022-10-14T22:02:19.020Z,6.88
2022-10-14T22:04:46.540Z,6.82
2022-10-14T22:07:13.973Z,6.25
2022-10-14T22:09:41.454Z,6.47
2022-10-14T22:12:08.919Z,7.25
2022-10-14T22:14:36.366Z,7.97
2022-10-14T22:17:03.920Z,8.55
2022-10-14T22:19:31.316Z,8.40
2022-10-14T22:22:01.165Z,7.32
2022-10-14T22:24:29.203Z,7.35
2022-10-14T22:26:56.622Z,6.60
2022-10-14T22:29:24.050Z,7.07
2022-10-14T22:31:51.479Z,6.50
2022-10-14T22:34:18.973Z,5.30
2022-10-14T22:36:46.476Z,5.90
2022-10-14T22:39:15.844Z,6.03
2022-10-14T22:41:43.513Z,5.85
2022-10-14T22:44:11.779Z,6.60
2022-10-14T22:46:39.606Z,5.75
2022-10-14T22:49:07.098Z,6.45
2022-10-14T22:51:36.569Z,7.10
2022-10-14T22:54:04.387Z,6.93
2022-10-14T22:56:32.784Z,6.50
2022-10-14T22:59:06.710Z,6.80
2022-10-14T23:01:34.563Z,5.43
2022-10-14T23:04:02.798Z,5.78
2022-10-14T23:09:00.488Z,5.47
2022-10-14T23:11:30.147Z,5.75
2022-10-14T23:13:59.155Z,7.30
2022-10-14T23:16:29.105Z,7.10
2022-10-14T23:18:58.593Z,9.40
2022-10-14T23:21:28.794Z,12.73
2022-10-14T23:23:58.307Z,12.98
2022-10-14T23:26:31.567Z,14.07
2022-10-14T23:29:00.413Z,17.38
2022-10-14T23:31:30.307Z,17.15
2022-10-14T23:33:59.260Z,16.15
2022-10-14T23:36:26.978Z,15.35
2022-10-14T23:38:54.492Z,15.75
2022-10-14T23:41:23.099Z,15.98
2022-10-14T23:43:51.816Z,17.38
2022-10-14T23:46:20.138Z,16.38
2022-10-14T23:48:55.823Z,18.55
2022-10-14T23:51:35.159Z,17.92
2022-10-14T23:54:02.841Z,18.10
2022-10-14T23:56:30.254Z,17.75
2022-10-14T23:58:57.808Z,17.70
